createdAt,value
2022-12-01T00:03:33.458Z,69.16
2022-12-01T00:08:36.176Z,69.32
2022-12-01T00:13:38.950Z,69.19
2022-12-01T00:18:41.881Z,69.50
2022-12-01T00:23:44.741Z,68.84
2022-12-01T00:28:51.861Z,69.96
2022-12-01T00:33:55.020Z,69.47
2022-12-01T00:38:58.096Z,69.23
2022-12-01T00:44:00.758Z,69.64
2022-12-01T00:49:03.981Z,69.95
2022-12-01T00:54:06.739Z,69.38
2022-12-01T00:59:09.455Z,69.79
2022-12-01T01:04:12.813Z,69.39
2022-12-01T01:09:17.983Z,69.46
2022-12-01T01:14:21.715Z,69.65
2022-12-01T01:19:24.579Z,69.95
2022-12-01T01:24:27.084Z,69.61
2022-12-01T01:29:29.791Z,70.07
2022-12-01T01:34:32.620Z,69.24
2022-12-01T01:39:35.345Z,70.11
2022-12-01T01:44:50.517Z,70.20
2022-12-01T01:49:54.513Z,70.04
2022-12-01T01:54:57.325Z,70.77
2022-12-01T02:00:07.921Z,69.92
2022-12-01T02:05:23.383Z,70.31
2022-12-01T02:10:43.735Z,70.16
2022-12-01T02:15:58.143Z,70.02
2022-12-01T02:21:16.928Z,70.00
2022-12-01T02:26:44.141Z,70.30
2022-12-01T02:31:57.727Z,70.56
2022-12-01T02:37:11.456Z,70.49
2022-12-01T02:42:39.463Z,70.25
2022-12-01T02:47:42.612Z,70.54
2022-12-01T02:52:46.042Z,70.16
2022-12-01T02:57:48.691Z,70.44
2022-12-01T03:02:57.094Z,70.28
2022-12-01T03:08:20.315Z,70.14
2022-12-01T03:13:50.115Z,69.98
2022-12-01T03:19:00.623Z,69.87
2022-12-01T03:24:09.352Z,69.74
2022-12-01T03:29:17.042Z,70.19
2022-12-01T03:34:43.247Z,70.06
2022-12-01T03:39:47.275Z,70.00
2022-12-01T03:44:53.868Z,69.65
2022-12-01T03:49:57.104Z,69.72
2022-12-01T03:55:14.952Z,69.62
2022-12-01T04:00:17.879Z,69.72
2022-12-01T04:05:25.164Z,69.92
2022-12-01T04:10:28.217Z,69.67
2022-12-01T04:15:31.083Z,69.48
2022-12-01T04:20:33.847Z,69.63
2022-12-01T04:25:36.537Z,68.98
2022-12-01T04:30:39.218Z,69.32
2022-12-01T04:35:41.828Z,68.90
2022-12-01T04:40:44.453Z,69.07
2022-12-01T04:45:47.130Z,69.23
2022-12-01T04:50:50.168Z,69.08
2022-12-01T04:55:52.883Z,69.05
2022-12-01T05:00:55.596Z,68.58
2022-12-01T05:06:06.178Z,69.06
2022-12-01T05:11:10.551Z,68.67
2022-12-01T05:16:19.253Z,68.61
2022-12-01T05:21:21.994Z,68.85
2022-12-01T05:26:24.629Z,68.19
2022-12-01T05:31:27.450Z,68.46
2022-12-01T05:36:30.570Z,68.80
2022-12-01T05:41:33.222Z,68.95
2022-12-01T05:46:35.922Z,68.60
2022-12-01T05:51:38.631Z,68.07
2022-12-01T05:56:41.450Z,68.61
2022-12-01T06:01:44.182Z,68.31
2022-12-01T06:06:47.024Z,68.06
2022-12-01T06:11:52.523Z,67.96
2022-12-01T06:16:55.495Z,67.98
2022-12-01T06:21:58.596Z,67.87
2022-12-01T06:27:01.296Z,67.88
2022-12-01T06:32:04.576Z,68.09
2022-12-01T06:37:07.316Z,67.65
2022-12-01T06:42:10.284Z,67.64
2022-12-01T06:47:12.923Z,67.46
2022-12-01T06:52:15.556Z,67.31
2022-12-01T06:57:18.337Z,67.01
2022-12-01T07:02:21.447Z,66.31
2022-12-01T07:07:24.629Z,67.18
2022-12-01T07:12:30.937Z,66.97
2022-12-01T07:17:34.216Z,67.03
2022-12-01T07:22:36.871Z,67.53
2022-12-01T07:27:39.513Z,67.42
2022-12-01T07:32:42.349Z,66.91
2022-12-01T07:37:45.019Z,66.95
2022-12-01T07:42:47.773Z,67.22
2022-12-01T07:47:54.378Z,67.32
2022-12-01T07:52:57.002Z,67.05
2022-12-01T07:58:01.175Z,66.92
2022-12-01T08:03:03.930Z,66.76
2022-12-01T08:08:06.930Z,67.02
2022-12-01T08:13:12.896Z,67.45
2022-12-01T08:18:19.753Z,67.26
2022-12-01T08:23:22.443Z,67.53
2022-12-01T08:28:25.443Z,66.95
2022-12-01T08:33:29.456Z,67.38
2022-12-01T08:38:32.506Z,67.37
2022-12-01T08:49:04.696Z,67.65
2022-12-01T08:54:07.680Z,67.57
2022-12-01T08:59:10.554Z,67.75
2022-12-01T09:04:13.211Z,67.60
2022-12-01T09:09:19.790Z,67.92
2022-12-01T09:14:23.316Z,67.45
2022-12-01T09:19:26.015Z,67.67
2022-12-01T09:24:28.792Z,67.72
2022-12-01T09:29:32.107Z,68.07
2022-12-01T09:34:34.782Z,67.75
2022-12-01T09:39:37.487Z,68.00
2022-12-01T09:44:53.268Z,67.98
2022-12-01T09:50:12.703Z,68.21
2022-12-01T09:55:19.420Z,67.79
2022-12-01T10:00:25.108Z,68.03
2022-12-01T10:05:56.563Z,68.27
2022-12-01T10:11:13.550Z,67.96
2022-12-01T10:16:18.839Z,68.29
2022-12-01T10:21:59.079Z,67.96
2022-12-01T10:27:22.178Z,67.59
2022-12-01T10:32:33.081Z,68.26
2022-12-01T10:37:35.860Z,67.96
2022-12-01T10:42:43.185Z,68.76
2022-12-01T10:48:10.509Z,68.39
2022-12-01T10:53:32.366Z,68.15
2022-12-01T10:58:43.350Z,68.75
2022-12-01T11:03:50.888Z,68.80
2022-12-01T11:09:06.383Z,68.42
2022-12-01T11:14:21.301Z,68.37
2022-12-01T11:19:35.947Z,68.14
2022-12-01T11:24:44.437Z,68.28
2022-12-01T11:29:50.406Z,68.17
2022-12-01T11:35:04.273Z,68.34
2022-12-01T11:40:29.327Z,68.50
2022-12-01T11:45:35.300Z,68.79
2022-12-01T11:50:40.250Z,68.52
2022-12-01T11:55:42.910Z,68.53
2022-12-01T12:00:53.069Z,68.41
2022-12-01T12:06:38.461Z,68.29
2022-12-01T12:11:38.282Z,68.41
2022-12-01T12:16:53.199Z,68.16
2022-12-01T12:22:06.404Z,68.57
2022-12-01T12:27:31.058Z,68.58
2022-12-01T12:32:54.855Z,68.59
2022-12-01T12:38:29.286Z,68.87
2022-12-01T12:43:57.917Z,68.84
2022-12-01T12:49:25.919Z,68.78
2022-12-01T12:54:51.344Z,68.64
2022-12-01T13:00:15.845Z,68.75
2022-12-01T13:05:33.248Z,69.13
2022-12-01T13:10:45.316Z,69.10
2022-12-01T13:15:49.737Z,68.77
2022-12-01T13:20:52.992Z,69.15
2022-12-01T13:25:56.670Z,70.37
2022-12-01T13:31:06.302Z,70.49
2022-12-01T13:36:45.199Z,69.84
2022-12-01T13:41:40.177Z,69.85
2022-12-01T13:46:43.091Z,69.88
2022-12-01T13:52:19.138Z,70.11
2022-12-01T13:57:27.787Z,69.86
2022-12-01T14:02:32.809Z,69.69
2022-12-01T14:07:38.252Z,69.75
2022-12-01T14:12:45.439Z,69.92
2022-12-01T14:17:48.849Z,70.05
2022-12-01T14:23:05.083Z,69.86
2022-12-01T14:28:17.196Z,70.00
2022-12-01T14:34:02.518Z,69.84
2022-12-01T14:39:14.132Z,69.78
2022-12-01T14:44:37.012Z,69.84
2022-12-01T14:50:12.166Z,70.53
2022-12-01T14:55:21.765Z,70.20
2022-12-01T15:00:25.542Z,70.21
2022-12-01T15:05:30.093Z,70.66
2022-12-01T15:10:37.285Z,70.62
2022-12-01T15:15:51.114Z,70.94
2022-12-01T15:20:59.357Z,71.57
2022-12-01T15:26:02.427Z,71.26
2022-12-01T15:31:10.287Z,71.90
2022-12-01T15:36:13.431Z,72.04
2022-12-01T15:41:28.992Z,72.00
2022-12-01T15:46:34.822Z,72.52
2022-12-01T15:51:37.652Z,72.46
2022-12-01T15:56:41.416Z,72.66
2022-12-01T16:01:45.676Z,72.69
2022-12-01T16:07:07.702Z,73.11
2022-12-01T16:12:12.992Z,73.13
2022-12-01T16:17:17.525Z,73.18
2022-12-01T16:22:22.271Z,73.45
2022-12-01T16:27:27.210Z,73.87
2022-12-01T16:32:36.898Z,73.50
2022-12-01T16:37:40.290Z,73.66
2022-12-01T16:42:43.107Z,73.38
2022-12-01T16:47:47.829Z,73.40
2022-12-01T16:52:50.448Z,73.41
2022-12-01T16:57:55.842Z,73.75
2022-12-01T17:02:58.963Z,73.83
2022-12-01T17:08:01.784Z,73.49
2022-12-01T17:13:04.529Z,74.17
2022-12-01T17:18:07.355Z,74.29
2022-12-01T17:23:10.152Z,74.13
2022-12-01T17:28:12.861Z,74.26
2022-12-01T17:33:15.516Z,74.24
2022-12-01T17:38:18.192Z,74.82
2022-12-01T17:43:21.288Z,74.95
2022-12-01T17:48:23.927Z,74.85
2022-12-01T17:53:27.165Z,74.89
2022-12-01T17:58:31.005Z,74.92
2022-12-01T18:03:33.747Z,74.61
2022-12-01T18:08:37.724Z,74.42
2022-12-01T18:13:42.576Z,74.35
2022-12-01T18:18:45.518Z,74.85
2022-12-01T18:23:55.352Z,74.96
2022-12-01T18:29:09.048Z,74.76
2022-12-01T18:34:12.760Z,74.81
2022-12-01T18:39:16.901Z,75.05
2022-12-01T18:44:19.567Z,74.91
2022-12-01T18:49:22.164Z,75.03
2022-12-01T18:54:24.923Z,75.19
2022-12-01T18:59:27.738Z,74.97
2022-12-01T19:04:30.763Z,75.50
2022-12-01T19:09:33.591Z,75.23
2022-12-01T19:14:36.482Z,75.46
2022-12-01T19:19:39.197Z,75.55
2022-12-01T19:24:44.872Z,75.18
2022-12-01T19:29:52.596Z,75.61
2022-12-01T19:34:55.663Z,75.51
2022-12-01T19:39:58.354Z,76.21
2022-12-01T19:45:01.645Z,76.65
2022-12-01T19:50:07.196Z,77.08
2022-12-01T19:55:11.038Z,77.20
2022-12-01T20:00:14.005Z,77.06
2022-12-01T20:05:16.904Z,76.70
2022-12-01T20:10:20.679Z,76.97
2022-12-01T20:15:23.337Z,76.75
2022-12-01T20:20:26.159Z,77.34
2022-12-01T20:25:28.801Z,77.73
2022-12-01T20:30:31.529Z,77.71
2022-12-01T20:35:34.281Z,78.19
2022-12-01T20:40:37.041Z,78.29
2022-12-01T20:45:39.725Z,77.93
2022-12-01T20:50:42.909Z,78.25
2022-12-01T20:55:45.789Z,78.97
2022-12-01T21:00:49.145Z,78.17
2022-12-01T21:05:51.898Z,78.48
2022-12-01T21:10:54.580Z,78.31
2022-12-01T21:16:03.450Z,78.37
2022-12-01T21:21:25.418Z,78.09
2022-12-01T21:26:28.233Z,78.56
2022-12-01T21:31:32.482Z,78.75
2022-12-01T21:36:35.413Z,78.63
2022-12-01T21:41:38.325Z,78.52
2022-12-01T21:46:42.720Z,78.44
2022-12-01T21:51:45.711Z,78.71
2022-12-01T21:56:54.040Z,78.68
2022-12-01T22:01:57.837Z,78.75
2022-12-01T22:07:01.265Z,79.21
2022-12-01T22:12:13.183Z,79.18
2022-12-01T22:17:24.554Z,79.26
2022-12-01T22:22:32.921Z,79.12
2022-12-01T22:27:44.295Z,79.41
2022-12-01T22:32:56.292Z,79.86
2022-12-01T22:38:08.978Z,79.88
2022-12-01T22:43:28.303Z,79.41
2022-12-01T22:48:40.276Z,79.54
2022-12-01T22:53:44.791Z,79.20
2022-12-01T22:58:47.772Z,79.51
2022-12-01T23:03:50.644Z,79.75
2022-12-01T23:08:53.585Z,79.53
2022-12-01T23:13:56.245Z,79.86
2022-12-01T23:18:58.743Z,79.97
2022-12-01T23:24:02.580Z,79.95
2022-12-01T23:29:05.232Z,80.05
2022-12-01T23:34:17.064Z,79.92
2022-12-01T23:39:27.391Z,80.16
2022-12-01T23:44:41.873Z,79.82
2022-12-01T23:49:46.191Z,79.73
2022-12-01T23:54:49.324Z,80.48
2022-12-01T23:59:55.067Z,80.30
